Big Piney, WY

6:01 AM MDT on September 18, 2014 (GMT -0600)
Big Piney-Marbleton | Change Station
CLOSE
Current Station
Airport
Location: Big Piney,
Elevation: 6969 ft
Nearby Weather Stations
Active Advisory: Special Statement Active Notice: Record Report

Elev 6969 ft 42.59 °N, 110.11 °W | Updated 1 hour ago

Partly Cloudy
Partly Cloudy
41 °F
Feels Like 39 °F
N
4
Wind Variable Wind from ESE

Today
High -- | Low -- °F
--% Chance of Precip.
Yesterday
High -- | Low -- °F
Precip. -- in
7:03 AM 7:24 PM
Waning Crescent, 27% visible
Pressure 29.93 in
Visibility 10.0 miles
Clouds Clear
Windchill 39 °F
Dew Point 37 °F
Humidity 86%
Rainfall 0.00 in
Snow Depth 2 in , 1 in , 0 in
UV 0 out of 12
Pollen 6.00 out of 12
Air Quality Not available.
Flu Activity Not available.
METAR KBPI 181053Z AUTO 11003KT 10SM CLR 05/03 A3014 RMK AO2 SLP135 T00500028

More Conditions Fewer Conditions

Pressure 29.93 in
Visibility 10.0 miles
Clouds Clear
Windchill 39 °F
Dew Point 37 °F
Humidity 86%
Rainfall 0.00 in
Snow Depth 2 in , 1 in , 0 in
UV 0 out of 12
Pollen 6.00 out of 12
Air Quality Not available.
Flu Activity Not available.
METAR KBPI 181053Z AUTO 11003KT 10SM CLR 05/03 A3014 RMK AO2 SLP135 T00500028

More Conditions Fewer Conditions

10-Day Weather Forecast

Almanac

Astronomy

Sep. 18, 2014 Rise Set
Actual Time 7:03 AM MDT 7:24 PM MDT
Civil Twilight 6:35 AM MDT 7:52 PM MDT
Nautical Twilight 6:02 AM MDT 8:26 PM MDT
Astronomical Twilight 5:27 AM MDT 9:00 PM MDT
Moon 1:53 AM MDT 4:22 PM MDT
Length of Visible Light 13h 17m
Length of Day
12h 21m
Tomorrow will be 2m 51s shorter.
Waning Crescent, 27% of the Moon is Illuminated
Today
Waning Crescent
Sep 24
New
Oct 1
First Quarter
Oct 8
Full
Oct 15
Last Quarter

Today's Extremes

State Highs State Lows

Community

WunderPhotos

Upload Photos

1,754,330 photos uploaded!

Nearby

Snow Depth

Station Depth Elevation
Blind Bull Summit 2 in 8900 ft
Big Sandy Opening 1 in 9080 ft
Loomis Park 0 in 8240 ft
Salt River Summit 0 in 7600 ft
Webber Springs 0 in 9250 ft

Earthquake Activity

City Distance Mag. Time & Date
No recent earthquake activity has been reported nearby.
Minimum magnitude displayed is 2.5.

Coastal Water Temperatures

Place Temperature
No Stations Reporting

Nearby Weather Stations